Time;durP1;ratioP1;P1;durP2;ratioP2;P2;SDS_P1;SDS_P2;PMS_P1;PMS_P2;Temp;Humidity;BMP_temperature;BMP_pressure;BME280_temperature;BME280_humidity;BME280_pressure;Samples;Min_cycle;Max_cycle;Signal;HPM_P1;HPM_P2
2023/06/29 00:00:45;;;;;;;25.17;14.20;;;;;;;19.64;87.11;101518.09;4989659;28;20113;-70
2023/06/29 00:03:11;;;;;;;22.42;13.93;;;;;;;19.64;87.35;101523.63;4989236;28;20070;-67
2023/06/29 00:05:37;;;;;;;24.67;13.35;;;;;;;19.61;87.44;101525.66;4988611;28;20474;-66
2023/06/29 00:08:02;;;;;;;26.83;13.70;;;;;;;19.62;87.70;101512.72;4987725;28;20513;-67
2023/06/29 00:10:28;;;;;;;28.42;13.75;;;;;;;19.61;87.90;101510.97;4987660;28;20049;-67
2023/06/29 00:12:54;;;;;;;26.40;14.88;;;;;;;19.61;88.08;101511.84;4988532;28;20124;-67
2023/06/29 00:15:19;;;;;;;26.33;14.43;;;;;;;19.58;88.67;101502.97;4988673;28;20082;-67
2023/06/29 00:17:47;;;;;;;21.23;13.95;;;;;;;19.57;88.74;101507.63;4988798;28;20053;-66
2023/06/29 00:20:13;;;;;;;25.90;14.73;;;;;;;19.53;88.96;101495.13;4988273;28;20592;-67
2023/06/29 00:22:40;;;;;;;24.90;14.68;;;;;;;19.49;89.73;101492.84;4987899;28;20085;-67
2023/06/29 00:25:08;;;;;;;21.50;13.75;;;;;;;19.46;89.16;101494.03;5002206;28;20530;-67
2023/06/29 00:27:33;;;;;;;22.70;13.73;;;;;;;19.45;89.51;101485.91;4988084;28;20393;-69
2023/06/29 00:29:58;;;;;;;18.98;13.75;;;;;;;19.45;89.80;101491.44;4986657;28;20049;-66
2023/06/29 00:32:24;;;;;;;21.65;13.45;;;;;;;19.43;89.27;101487.94;5007026;28;20021;-67
2023/06/29 00:34:49;;;;;;;20.92;13.68;;;;;;;19.43;89.24;101493.47;5007472;28;20036;-67
2023/06/29 00:37:14;;;;;;;22.95;13.98;;;;;;;19.44;88.75;101492.44;5006177;28;20124;-67
2023/06/29 00:39:40;;;;;;;28.02;13.43;;;;;;;19.43;89.41;101485.19;4989848;28;20069;-67
2023/06/29 00:42:06;;;;;;;24.60;13.95;;;;;;;19.41;89.79;101481.72;4987535;28;20100;-67
2023/06/29 00:44:31;;;;;;;25.90;14.38;;;;;;;19.40;89.63;101483.63;4988288;28;20057;-68
2023/06/29 00:46:56;;;;;;;26.58;14.82;;;;;;;19.39;89.59;101481.84;4986167;28;20077;-66
2023/06/29 00:49:23;;;;;;;22.55;13.95;;;;;;;19.41;89.01;101487.25;5004450;28;20030;-66
2023/06/29 00:51:50;;;;;;;24.13;14.20;;;;;;;19.41;89.05;101488.09;4990419;28;20038;-67
2023/06/29 00:54:18;;;;;;;25.90;14.40;;;;;;;19.41;89.04;101481.72;4987557;28;20414;-69
2023/06/29 00:56:45;;;;;;;27.95;15.77;;;;;;;19.40;88.87;101475.34;4987589;28;20394;-69
2023/06/29 00:59:13;;;;;;;24.25;14.57;;;;;;;19.38;90.47;101475.47;5003620;28;20053;-67
2023/06/29 01:01:40;;;;;;;21.70;14.38;;;;;;;19.35;90.69;101461.09;4988092;28;20058;-67
2023/06/29 01:04:07;;;;;;;25.23;14.18;;;;;;;19.35;89.79;101467.50;4987652;28;20825;-67
2023/06/29 01:06:44;;;;;;;26.83;15.68;;;;;;;19.33;90.19;101461.25;5002101;28;20043;-69
2023/06/29 01:09:11;;;;;;;22.48;14.40;;;;;;;19.35;90.20;101462.00;5002456;28;20030;-69
2023/06/29 01:11:37;;;;;;;26.90;13.52;;;;;;;19.36;88.98;101466.50;4987071;28;20051;-67
2023/06/29 01:14:10;;;;;;;28.15;14.98;;;;;;;19.37;89.55;101468.22;4986606;28;20034;-66
2023/06/29 01:16:36;;;;;;;26.00;14.45;;;;;;;19.39;89.39;101465.28;4987202;28;20041;-67
2023/06/29 01:19:08;;;;;;;27.70;14.55;;;;;;;19.35;91.07;101463.84;4987602;28;20026;-67
2023/06/29 01:21:39;;;;;;;23.55;14.50;;;;;;;19.34;90.61;101462.13;4986766;28;20058;-67
2023/06/29 01:24:05;;;;;;;26.10;15.13;;;;;;;19.32;90.14;101459.53;4987391;28;20527;-67
2023/06/29 01:26:31;;;;;;;23.35;14.23;;;;;;;19.33;89.78;101461.25;5001967;28;20042;-67
2023/06/29 01:28:58;;;;;;;23.15;14.40;;;;;;;19.34;90.81;101457.47;4987791;28;20038;-67
2023/06/29 01:31:26;;;;;;;23.67;14.90;;;;;;;19.34;90.77;101451.09;4987771;28;20153;-67
2023/06/29 01:33:53;;;;;;;23.77;15.43;;;;;;;19.32;90.02;101456.78;4987558;28;20501;-68
2023/06/29 01:36:26;;;;;;;22.38;14.93;;;;;;;19.33;90.57;101455.75;4985911;28;20061;-67
2023/06/29 01:39:00;;;;;;;23.02;15.30;;;;;;;19.32;90.78;101453.16;4987216;28;20038;-70
2023/06/29 01:41:26;;;;;;;21.10;13.93;;;;;;;19.29;90.68;101448.78;4987306;28;20085;-67
2023/06/29 01:43:52;;;;;;;25.20;15.55;;;;;;;19.31;90.58;101446.75;4987708;28;20498;-67
2023/06/29 01:46:19;;;;;;;24.08;15.00;;;;;;;19.30;91.17;101450.53;4986116;28;20027;-67
2023/06/29 01:48:46;;;;;;;26.40;15.82;;;;;;;19.29;91.66;101451.56;5013878;28;20072;-68
2023/06/29 01:51:13;;;;;;;26.73;15.95;;;;;;;19.30;91.55;101445.00;4986285;28;20486;-67
2023/06/29 01:53:38;;;;;;;24.77;15.40;;;;;;;19.27;91.83;101439.81;5005667;28;20054;-67
2023/06/29 01:56:04;;;;;;;27.85;15.38;;;;;;;19.28;91.36;101437.91;4990640;28;20051;-67
2023/06/29 01:58:29;;;;;;;22.30;15.23;;;;;;;19.27;90.44;101442.56;4989470;28;20034;-67
2023/06/29 02:00:55;;;;;;;26.55;15.93;;;;;;;19.27;90.62;101438.94;4993994;28;20022;-67
2023/06/29 02:03:20;;;;;;;25.92;15.75;;;;;;;19.27;91.24;101439.81;4990683;28;20108;-69
2023/06/29 02:05:46;;;;;;;27.38;15.73;;;;;;;19.27;90.37;101439.81;5005285;28;20034;-69
2023/06/29 02:08:11;;;;;;;27.05;15.88;;;;;;;19.28;91.03;101440.69;4990884;28;20087;-67
2023/06/29 02:10:39;;;;;;;28.00;15.43;;;;;;;19.28;90.61;101433.25;5004725;28;20023;-66
2023/06/29 02:13:04;;;;;;;27.33;15.48;;;;;;;19.28;90.81;101435.16;4990274;28;20908;-67
2023/06/29 02:15:30;;;;;;;24.27;14.55;;;;;;;19.29;90.70;101434.13;4991323;28;20037;-68
2023/06/29 02:18:03;;;;;;;27.13;15.68;;;;;;;19.28;91.23;101425.00;4989146;28;20030;-67
2023/06/29 02:20:28;;;;;;;27.90;15.98;;;;;;;19.27;90.99;101419.63;5004856;28;20034;-67
2023/06/29 02:22:53;;;;;;;28.23;16.02;;;;;;;19.25;91.34;101428.03;5005477;28;20378;-67
2023/06/29 02:25:19;;;;;;;25.08;16.15;;;;;;;19.25;91.81;101427.19;4989604;28;20042;-67
2023/06/29 02:27:45;;;;;;;26.42;15.85;;;;;;;19.25;91.64;101427.19;5005064;28;20034;-69
2023/06/29 02:30:12;;;;;;;24.20;15.27;;;;;;;19.24;91.41;101425.44;4998126;28;20037;-67
2023/06/29 02:32:37;;;;;;;24.85;15.55;;;;;;;19.22;91.05;101417.34;4990538;28;20038;-66
2023/06/29 02:35:03;;;;;;;26.52;15.13;;;;;;;19.22;90.85;101417.34;5005277;28;20073;-67
2023/06/29 02:37:30;;;;;;;26.35;16.83;;;;;;;19.20;92.83;101411.09;5017835;28;20111;-67
2023/06/29 02:39:55;;;;;;;27.38;15.77;;;;;;;19.16;93.81;101409.66;5007718;28;20556;-67
2023/06/29 02:42:22;;;;;;;26.88;16.45;;;;;;;19.16;92.67;101412.41;5008231;28;20053;-67
2023/06/29 02:44:47;;;;;;;22.38;16.27;;;;;;;19.15;93.80;101410.69;5001724;28;20049;-67
2023/06/29 02:47:13;;;;;;;24.05;15.38;;;;;;;19.16;93.13;101406.03;5006037;28;20397;-67
2023/06/29 02:49:38;;;;;;;27.85;16.27;;;;;;;19.16;92.04;101408.78;5008030;28;20037;-67
2023/06/29 02:52:04;;;;;;;25.33;16.15;;;;;;;19.15;92.41;101407.91;5003170;28;20036;-68
2023/06/29 02:54:30;;;;;;;27.98;15.65;;;;;;;19.16;92.35;101400.50;4987641;28;20036;-68
2023/06/29 02:56:55;;;;;;;25.60;16.58;;;;;;;19.16;92.40;101404.13;4989578;28;20038;-67
2023/06/29 02:59:21;;;;;;;25.48;15.85;;;;;;;19.17;92.06;101407.78;4988491;28;20038;-67
2023/06/29 03:01:46;;;;;;;25.90;17.15;;;;;;;19.17;93.95;101403.13;4990071;28;20041;-67
2023/06/29 03:04:11;;;;;;;30.88;17.90;;;;;;;19.16;92.08;101398.63;4992751;28;20527;-67
2023/06/29 03:06:37;;;;;;;28.83;17.58;;;;;;;19.17;91.56;101399.50;5007039;28;20545;-67
2023/06/29 03:09:03;;;;;;;29.80;17.08;;;;;;;19.14;91.17;101395.16;5008692;28;20378;-68
2023/06/29 03:11:28;;;;;;;26.35;16.48;;;;;;;19.16;91.97;101404.13;5000573;28;20070;-67
2023/06/29 03:13:55;;;;;;;28.40;16.55;;;;;;;19.14;93.30;101399.81;4990046;28;20112;-67
2023/06/29 03:16:21;;;;;;;30.50;18.50;;;;;;;19.12;92.92;101397.22;4989788;28;20042;-66
2023/06/29 03:18:46;;;;;;;28.17;18.23;;;;;;;19.09;92.15;101400.28;4989442;28;20434;-67
2023/06/29 03:21:16;;;;;;;32.80;19.00;;;;;;;19.08;91.64;101399.41;4989808;28;20069;-67
2023/06/29 03:23:41;;;;;;;31.95;17.65;;;;;;;19.06;92.30;101395.91;4989432;28;20028;-66
2023/06/29 03:26:07;;;;;;;30.45;17.83;;;;;;;19.08;92.89;101393.03;4986847;28;20335;-66
2023/06/29 03:28:32;;;;;;;30.30;18.67;;;;;;;19.08;93.05;101385.63;4989091;28;20042;-68
2023/06/29 03:30:58;;;;;;;23.52;16.48;;;;;;;19.08;92.29;101387.50;5004788;28;20068;-67
2023/06/29 03:33:23;;;;;;;34.03;17.58;;;;;;;19.10;91.92;101388.22;4989193;28;20042;-67
2023/06/29 03:35:48;;;;;;;36.28;18.50;;;;;;;19.09;92.85;101390.09;4988786;28;20113;-66
2023/06/29 03:38:17;;;;;;;30.90;17.42;;;;;;;19.08;92.13;101385.63;4992641;28;20053;-67
2023/06/29 03:40:42;;;;;;;28.58;17.38;;;;;;;19.08;91.97;101382.84;5008560;28;20072;-67
2023/06/29 03:43:07;;;;;;;31.92;18.25;;;;;;;19.10;92.22;101388.22;5008187;28;20533;-67
2023/06/29 03:45:33;;;;;;;29.85;16.83;;;;;;;19.11;92.21;101392.69;4994958;28;20418;-67
2023/06/29 03:47:58;;;;;;;32.20;18.95;;;;;;;19.11;90.66;101382.53;4988785;28;20026;-67
2023/06/29 03:50:24;;;;;;;30.45;18.25;;;;;;;19.10;92.76;101389.06;4988572;28;20030;-67
2023/06/29 03:52:49;;;;;;;30.75;18.67;;;;;;;19.12;92.40;101391.69;5003173;28;20037;-67
2023/06/29 03:55:17;;;;;;;31.17;17.90;;;;;;;19.11;91.56;101389.94;4988686;28;20041;-67
2023/06/29 03:57:42;;;;;;;28.90;17.85;;;;;;;19.10;91.98;101378.03;4989477;28;20042;-67
2023/06/29 04:00:08;;;;;;;34.67;21.42;;;;;;;19.12;92.39;101386.19;4989362;28;20438;-66
2023/06/29 04:02:38;;;;;;;36.10;20.15;;;;;;;19.10;92.60;101369.75;4989224;28;20129;-67
2023/06/29 04:05:03;;;;;;;35.50;19.10;;;;;;;19.11;93.18;101374.25;4988596;28;20128;-67
2023/06/29 04:07:29;;;;;;;31.48;18.65;;;;;;;19.12;92.69;101369.63;4987694;28;20033;-66
2023/06/29 04:09:54;;;;;;;39.08;20.23;;;;;;;19.10;92.18;101367.00;4988020;28;20096;-67
2023/06/29 04:12:20;;;;;;;33.95;19.17;;;;;;;19.14;91.57;101367.56;4988079;28;20466;-68
2023/06/29 04:14:46;;;;;;;38.88;20.70;;;;;;;19.16;90.96;101364.66;4988338;28;20125;-70
2023/06/29 04:17:11;;;;;;;37.05;21.00;;;;;;;19.16;92.81;101364.66;4989238;28;20045;-67
2023/06/29 04:19:36;;;;;;;39.20;20.50;;;;;;;19.16;92.21;101365.50;4988299;28;20046;-67
2023/06/29 04:22:02;;;;;;;36.13;19.52;;;;;;;19.17;90.87;101370.03;4987498;28;20045;-67
2023/06/29 04:24:27;;;;;;;40.05;20.20;;;;;;;19.19;91.61;101361.59;4987725;28;20030;-69
2023/06/29 04:26:53;;;;;;;37.80;20.52;;;;;;;19.18;92.00;101366.25;4988199;28;20038;-68
2023/06/29 04:29:18;;;;;;;38.90;19.65;;;;;;;19.18;92.75;101363.50;4988628;28;20125;-66
2023/06/29 04:31:43;;;;;;;36.08;20.52;;;;;;;19.18;93.33;101368.16;4988395;28;20038;-67
2023/06/29 04:34:09;;;;;;;40.50;20.60;;;;;;;19.20;92.54;101361.44;4988100;28;20046;-67
2023/06/29 04:36:34;;;;;;;37.78;21.00;;;;;;;19.21;93.29;101359.53;4987242;28;20132;-67
2023/06/29 04:39:00;;;;;;;36.50;19.98;;;;;;;19.21;93.73;101365.06;4987897;28;20034;-67
2023/06/29 04:41:32;;;;;;;36.05;19.27;;;;;;;19.24;92.00;101357.34;4987526;28;20037;-68
2023/06/29 04:43:59;;;;;;;32.72;20.25;;;;;;;19.24;93.25;101362.84;4988658;28;20038;-67
2023/06/29 04:46:24;;;;;;;37.35;20.30;;;;;;;19.25;92.20;101363.72;4996056;28;20046;-67
2023/06/29 04:48:50;;;;;;;35.85;20.75;;;;;;;19.27;94.22;101358.94;4987662;28;20393;-67
2023/06/29 04:51:18;;;;;;;35.53;21.38;;;;;;;19.28;92.87;101353.25;4988223;28;20100;-69
2023/06/29 04:53:44;;;;;;;36.15;21.45;;;;;;;19.29;92.63;101352.22;4988091;28;20378;-67
2023/06/29 04:56:09;;;;;;;38.47;20.67;;;;;;;19.34;91.64;101357.28;4987306;28;20057;-66
2023/06/29 04:58:34;;;;;;;38.88;21.63;;;;;;;19.38;91.83;101356.81;4987683;28;20057;-67
2023/06/29 05:01:00;;;;;;;41.55;22.08;;;;;;;19.38;92.03;101350.44;4988647;28;20029;-67
2023/06/29 05:03:26;;;;;;;31.70;19.98;;;;;;;19.39;92.01;101352.16;4987704;28;20049;-67
2023/06/29 05:05:51;;;;;;;36.72;21.92;;;;;;;19.43;93.09;101361.00;4987472;28;20049;-68
2023/06/29 05:08:17;;;;;;;35.90;19.75;;;;;;;19.45;90.88;101357.06;4987311;28;20038;-67
2023/06/29 05:10:42;;;;;;;36.63;21.42;;;;;;;19.48;91.12;101350.34;4987399;28;20532;-67
2023/06/29 05:13:07;;;;;;;34.67;21.60;;;;;;;19.51;90.39;101359.19;4985985;28;20034;-66
2023/06/29 05:15:33;;;;;;;37.55;21.23;;;;;;;19.56;91.63;101353.19;5003249;28;20045;-67
2023/06/29 05:17:58;;;;;;;40.28;21.73;;;;;;;19.58;91.28;101356.66;4986335;28;20046;-66
2023/06/29 05:20:24;;;;;;;41.75;22.55;;;;;;;19.62;90.86;101358.13;4987584;28;20104;-67
2023/06/29 05:22:49;;;;;;;43.30;22.63;;;;;;;19.66;89.87;101358.69;4987454;28;20136;-68
2023/06/29 05:25:15;;;;;;;41.50;22.85;;;;;;;19.68;90.27;101353.84;4987510;28;20105;-68
2023/06/29 05:27:41;;;;;;;41.17;23.25;;;;;;;19.68;90.86;101356.63;4990220;28;20074;-66
2023/06/29 05:30:08;;;;;;;36.80;21.23;;;;;;;19.68;89.98;101351.09;5005523;28;20073;-67
2023/06/29 05:32:34;;;;;;;45.67;22.45;;;;;;;19.67;89.74;101350.22;4991687;28;20046;-67
2023/06/29 05:35:00;;;;;;;43.17;22.02;;;;;;;19.67;89.59;101344.69;4991095;28;20018;-67
2023/06/29 05:37:25;;;;;;;33.63;20.25;;;;;;;19.73;89.54;101352.38;4990872;28;20553;-67
2023/06/29 05:39:51;;;;;;;40.08;23.25;;;;;;;19.72;89.99;101345.09;4990729;28;20425;-66
2023/06/29 05:42:16;;;;;;;38.13;20.88;;;;;;;19.74;88.89;101340.31;4990931;28;20045;-68
2023/06/29 05:44:41;;;;;;;38.47;21.52;;;;;;;19.76;89.71;101354.81;5006961;28;20088;-67
2023/06/29 05:47:07;;;;;;;36.67;21.10;;;;;;;19.80;88.60;101349.84;4991629;28;20081;-66
2023/06/29 05:49:32;;;;;;;37.05;22.17;;;;;;;19.82;88.28;101343.16;4990610;28;20046;-67
2023/06/29 05:51:58;;;;;;;34.97;21.75;;;;;;;19.85;88.33;101341.94;4990785;28;20093;-67
2023/06/29 05:54:24;;;;;;;36.40;22.15;;;;;;;19.82;88.61;101350.56;4990715;28;20277;-68
2023/06/29 05:56:49;;;;;;;40.55;22.25;;;;;;;19.82;88.33;101351.44;4991184;28;20042;-67
2023/06/29 05:59:14;;;;;;;35.08;21.35;;;;;;;19.84;87.85;101342.97;4990561;28;20038;-67
2023/06/29 06:01:40;;;;;;;39.67;22.42;;;;;;;19.83;87.60;101344.00;4991504;28;20027;-67
2023/06/29 06:04:05;;;;;;;36.05;22.77;;;;;;;19.85;87.05;101341.94;4991047;28;20046;-66
2023/06/29 06:06:31;;;;;;;40.15;20.83;;;;;;;19.90;87.68;101336.81;4990651;28;20501;-67
2023/06/29 06:08:57;;;;;;;40.72;22.38;;;;;;;19.94;85.83;101342.88;4990462;28;20026;-67
2023/06/29 06:11:22;;;;;;;40.10;20.63;;;;;;;20.01;87.48;101335.69;5005240;28;20471;-66
2023/06/29 06:13:48;;;;;;;39.42;20.88;;;;;;;20.06;87.11;101339.72;4990906;28;20447;-67
2023/06/29 06:16:13;;;;;;;36.25;21.27;;;;;;;20.10;88.23;101332.84;4991538;28;20510;-68
2023/06/29 06:18:39;;;;;;;38.28;21.35;;;;;;;20.12;86.71;101341.81;4990437;28;20046;-67
2023/06/29 06:21:04;;;;;;;35.65;19.27;;;;;;;20.15;84.64;101335.13;4990073;28;20367;-69
2023/06/29 06:23:30;;;;;;;38.92;19.55;;;;;;;20.23;84.40;101335.16;4990834;28;20042;-67
2023/06/29 06:25:55;;;;;;;32.80;19.52;;;;;;;20.32;85.27;101338.84;4989544;28;20058;-67
2023/06/29 06:28:21;;;;;;;33.53;19.80;;;;;;;20.45;85.27;101342.03;4990804;28;20045;-67
2023/06/29 06:30:47;;;;;;;32.10;18.50;;;;;;;20.51;83.61;101337.78;4990760;28;20026;-67
2023/06/29 06:33:12;;;;;;;32.17;19.42;;;;;;;20.57;83.28;101342.69;4990577;28;20398;-67
2023/06/29 06:35:38;;;;;;;33.28;17.40;;;;;;;20.65;81.86;101334.41;4990213;28;20038;-66
2023/06/29 06:38:03;;;;;;;27.85;17.33;;;;;;;20.75;82.68;101342.56;4988484;28;20050;-67
2023/06/29 06:40:28;;;;;;;31.80;18.02;;;;;;;20.81;80.32;101340.03;4989614;28;20031;-67
2023/06/29 06:42:54;;;;;;;29.73;17.15;;;;;;;20.93;81.56;101335.06;5004883;28;20042;-66
2023/06/29 06:45:21;;;;;;;31.92;17.95;;;;;;;21.08;80.71;101338.94;4988483;28;20442;-67
2023/06/29 06:47:46;;;;;;;31.95;18.40;;;;;;;21.20;78.78;101339.47;4989853;28;20034;-67
2023/06/29 06:50:11;;;;;;;29.52;17.33;;;;;;;21.33;79.49;101337.13;4990342;28;20038;-67
2023/06/29 06:52:37;;;;;;;30.55;17.27;;;;;;;21.43;79.36;101334.19;4988178;28;20109;-67
2023/06/29 06:55:04;;;;;;;32.30;17.77;;;;;;;21.53;78.57;101331.28;4989849;28;20068;-67
2023/06/29 06:57:29;;;;;;;29.67;17.35;;;;;;;21.68;79.80;101328.69;4988207;28;20041;-67
2023/06/29 06:59:55;;;;;;;30.33;16.80;;;;;;;21.81;76.31;101331.81;4990253;28;20030;-67
2023/06/29 07:02:21;;;;;;;27.50;16.42;;;;;;;22.07;77.00;101331.66;4990126;28;20080;-66
2023/06/29 07:04:47;;;;;;;28.75;16.65;;;;;;;22.29;74.36;101339.28;4989883;28;20030;-67
2023/06/29 07:07:12;;;;;;;29.48;17.05;;;;;;;22.42;74.25;101333.19;4988281;28;20036;-67
2023/06/29 07:09:38;;;;;;;27.90;16.67;;;;;;;22.50;72.26;101335.06;4989344;28;20169;-66
2023/06/29 07:12:04;;;;;;;27.05;15.88;;;;;;;22.63;71.17;101335.38;4989469;28;20042;-66
2023/06/29 07:14:31;;;;;;;23.10;15.27;;;;;;;22.80;71.18;101333.41;4990288;28;20365;-66
2023/06/29 07:16:57;;;;;;;26.33;16.05;;;;;;;23.01;71.98;101335.63;4989135;28;20054;-67
2023/06/29 07:19:22;;;;;;;26.20;16.70;;;;;;;23.17;71.06;101335.53;5004523;28;20045;-67
2023/06/29 07:21:48;;;;;;;30.23;15.65;;;;;;;23.30;70.83;101334.94;4988639;28;20433;-66
2023/06/29 07:24:13;;;;;;;24.98;15.30;;;;;;;23.38;69.50;101326.56;4989656;28;20458;-67
2023/06/29 07:26:39;;;;;;;31.00;16.85;;;;;;;23.43;69.53;101330.53;4988813;28;20038;-66
2023/06/29 07:29:05;;;;;;;24.45;16.05;;;;;;;23.42;67.98;101336.28;4989869;28;20089;-67
2023/06/29 07:31:31;;;;;;;30.10;17.92;;;;;;;23.39;65.60;101328.28;4989395;28;20093;-66
2023/06/29 07:33:57;;;;;;;27.27;16.23;;;;;;;23.47;66.32;101331.03;4989104;28;20474;-67
2023/06/29 07:36:24;;;;;;;28.48;18.02;;;;;;;23.48;65.79;101331.88;4988969;28;20052;-66
2023/06/29 07:38:50;;;;;;;30.95;17.95;;;;;;;23.54;67.08;101328.34;4988668;28;20081;-66
2023/06/29 07:41:17;;;;;;;27.52;17.85;;;;;;;23.68;66.31;101324.81;4988554;28;20057;-68
2023/06/29 07:43:47;;;;;;;26.48;17.60;;;;;;;23.76;65.80;101321.97;4989604;28;20431;-67
2023/06/29 07:46:13;;;;;;;28.98;17.17;;;;;;;23.93;66.90;101331.91;4989745;28;20494;-67
2023/06/29 07:48:38;;;;;;;31.30;16.17;;;;;;;24.00;63.93;101322.81;4999564;28;20171;-68
2023/06/29 07:51:04;;;;;;;28.48;17.80;;;;;;;24.15;65.21;101312.59;5006569;28;20540;-66
2023/06/29 07:53:30;;;;;;;28.33;17.15;;;;;;;24.31;64.57;101318.00;4997029;28;20045;-66
2023/06/29 07:55:56;;;;;;;27.50;17.17;;;;;;;24.46;64.27;101320.84;4987720;28;20038;-66
2023/06/29 07:58:21;;;;;;;27.88;17.65;;;;;;;24.58;61.61;101321.25;5003703;28;20049;-66
2023/06/29 08:00:46;;;;;;;27.80;17.30;;;;;;;24.70;60.45;101325.25;4997399;28;20050;-67
2023/06/29 08:03:12;;;;;;;26.33;16.02;;;;;;;24.91;62.87;101322.56;4989174;28;20490;-67
2023/06/29 08:05:37;;;;;;;26.55;17.02;;;;;;;25.03;61.46;101316.47;4988697;28;20049;-67
2023/06/29 08:08:03;;;;;;;27.17;16.55;;;;;;;25.11;62.85;101314.50;4988199;28;20070;-67
2023/06/29 08:10:28;;;;;;;26.15;17.27;;;;;;;24.87;59.29;101320.34;4987849;28;20467;-66
2023/06/29 08:12:53;;;;;;;29.60;18.23;;;;;;;24.71;60.09;101317.75;4988325;28;20078;-66
2023/06/29 08:15:19;;;;;;;27.52;16.65;;;;;;;24.57;61.10;101308.34;4989640;28;20049;-67
2023/06/29 08:17:44;;;;;;;29.65;17.95;;;;;;;24.63;62.00;101314.03;4989035;28;20034;-66
2023/06/29 08:20:12;;;;;;;29.02;17.95;;;;;;;24.73;61.39;101310.97;4986698;28;20410;-66
2023/06/29 08:22:38;;;;;;;24.35;17.08;;;;;;;24.87;61.36;101309.22;4988038;28;20113;-66
2023/06/29 08:25:04;;;;;;;27.60;16.45;;;;;;;25.02;62.48;101314.75;4988066;28;20037;-67
2023/06/29 08:27:30;;;;;;;26.40;17.20;;;;;;;25.00;61.02;101311.31;4987821;28;20528;-68
2023/06/29 08:29:55;;;;;;;27.20;16.13;;;;;;;25.13;61.23;101312.38;4988973;28;20034;-68
2023/06/29 08:32:20;;;;;;;26.27;17.10;;;;;;;25.09;59.93;101308.28;4988376;28;20042;-67
2023/06/29 08:34:46;;;;;;;27.73;19.20;;;;;;;25.04;58.68;101318.22;4988174;28;20117;-67
2023/06/29 08:37:11;;;;;;;31.30;19.02;;;;;;;24.98;58.71;101321.78;4987646;28;20050;-69
2023/06/29 08:39:37;;;;;;;27.20;17.42;;;;;;;24.96;61.05;101319.19;4987871;28;20038;-67
2023/06/29 08:42:02;;;;;;;31.15;18.73;;;;;;;24.87;58.31;101318.44;4987680;28;20368;-67
2023/06/29 08:44:28;;;;;;;27.42;18.02;;;;;;;24.92;58.15;101318.72;4988357;28;20355;-66
2023/06/29 08:46:57;;;;;;;28.90;17.80;;;;;;;24.93;60.08;101305.66;4988215;28;20493;-66
2023/06/29 08:49:23;;;;;;;31.35;18.42;;;;;;;25.12;59.74;101304.22;5002383;28;20069;-66
2023/06/29 08:51:51;;;;;;;31.08;18.55;;;;;;;25.34;59.54;101308.78;4987140;28;20494;-67
2023/06/29 08:54:17;;;;;;;31.55;18.25;;;;;;;25.50;58.07;101304.84;4993743;28;20092;-67
2023/06/29 08:56:44;;;;;;;30.85;18.00;;;;;;;25.88;59.26;101307.41;5007451;28;20038;-67
2023/06/29 08:59:10;;;;;;;29.25;19.00;;;;;;;25.89;55.99;101304.44;4998631;28;20038;-67
2023/06/29 09:01:37;;;;;;;28.42;18.77;;;;;;;26.00;57.55;101308.59;5001619;28;20172;-67
2023/06/29 09:04:03;;;;;;;28.27;18.73;;;;;;;26.20;54.04;101301.25;4987857;28;20034;-67
2023/06/29 09:06:28;;;;;;;31.75;17.48;;;;;;;26.39;55.16;101294.13;4987435;28;20040;-67
2023/06/29 09:08:54;;;;;;;30.80;18.83;;;;;;;26.55;54.59;101292.09;4987118;28;20505;-69
2023/06/29 09:11:19;;;;;;;27.92;18.00;;;;;;;26.57;54.45;101296.38;5006508;28;20380;-67
2023/06/29 09:13:46;;;;;;;31.65;19.05;;;;;;;26.59;54.16;101296.19;5006798;28;20393;-67
2023/06/29 09:16:14;;;;;;;34.95;17.77;;;;;;;26.66;53.94;101297.09;4988686;28;20446;-66
2023/06/29 09:18:39;;;;;;;29.40;18.00;;;;;;;26.67;53.69;101293.22;4987566;28;20108;-68
2023/06/29 09:21:05;;;;;;;27.33;18.27;;;;;;;26.68;53.16;101298.63;4987825;28;20038;-67
2023/06/29 09:23:33;;;;;;;36.53;18.52;;;;;;;26.74;54.42;101291.34;4987513;28;20423;-67
2023/06/29 09:25:58;;;;;;;51.25;20.00;;;;;;;26.89;55.80;101296.78;4986785;28;20058;-67
2023/06/29 09:28:25;;;;;;;31.48;18.85;;;;;;;26.80;53.08;101298.00;4986205;28;20165;-66
2023/06/29 09:30:51;;;;;;;31.38;18.23;;;;;;;26.73;55.38;101299.94;4988535;28;20021;-66
2023/06/29 09:33:16;;;;;;;25.98;17.35;;;;;;;26.65;55.25;101300.94;4987625;28;20212;-66
2023/06/29 09:35:47;;;;;;;27.67;17.77;;;;;;;26.54;53.79;101296.81;4987871;28;20050;-67
2023/06/29 09:38:15;;;;;;;28.92;18.42;;;;;;;26.32;53.96;101295.13;4987581;28;20054;-67
2023/06/29 09:40:52;;;;;;;31.42;19.02;;;;;;;26.33;54.53;101297.69;4987904;28;20030;-67
2023/06/29 09:43:20;;;;;;;26.80;19.17;;;;;;;26.20;54.12;101295.66;4987699;28;20042;-68
2023/06/29 09:45:46;;;;;;;29.70;19.88;;;;;;;26.06;53.63;101287.41;4988280;28;20093;-69
2023/06/29 09:48:12;;;;;;;29.65;19.15;;;;;;;26.08;54.85;101288.94;4987793;28;20430;-67
2023/06/29 09:50:40;;;;;;;28.48;19.20;;;;;;;26.08;53.83;101296.44;4986858;28;20038;-67
2023/06/29 09:53:09;;;;;;;29.13;19.95;;;;;;;26.04;55.58;101309.06;4986892;28;20530;-67
2023/06/29 09:55:37;;;;;;;32.35;18.85;;;;;;;26.19;55.10;101305.09;4986660;28;20037;-66
2023/06/29 09:58:04;;;;;;;31.73;20.40;;;;;;;26.14;53.10;101304.84;4987007;28;20135;-67
2023/06/29 10:00:32;;;;;;;32.40;21.13;;;;;;;26.02;53.69;101288.88;4988408;28;20096;-68
2023/06/29 10:02:58;;;;;;;34.42;21.70;;;;;;;25.98;54.04;101301.50;4987860;28;20445;-65
2023/06/29 10:05:23;;;;;;;32.55;21.40;;;;;;;26.06;53.93;101298.56;4987298;28;20038;-67
2023/06/29 10:07:53;;;;;;;33.25;20.75;;;;;;;26.32;54.40;101309.06;4985635;28;20089;-67
2023/06/29 10:10:20;;;;;;;36.75;21.75;;;;;;;26.31;55.00;101301.78;4986717;28;20549;-67
2023/06/29 10:12:49;;;;;;;31.33;20.45;;;;;;;26.29;54.63;101295.53;4988106;28;20434;-69
2023/06/29 10:15:18;;;;;;;31.63;20.55;;;;;;;26.43;56.18;101295.44;4991593;28;20046;-67
2023/06/29 10:17:58;;;;;;;32.55;20.92;;;;;;;26.63;55.13;101295.59;5006583;28;20034;-66
2023/06/29 10:20:26;;;;;;;34.63;21.55;;;;;;;26.73;53.62;101295.22;4990776;28;20042;-67
2023/06/29 10:22:54;;;;;;;33.38;20.42;;;;;;;26.62;54.03;101295.75;4990339;28;20129;-66
2023/06/29 10:25:21;;;;;;;31.50;20.77;;;;;;;26.79;55.65;101299.94;4990441;28;20042;-67
2023/06/29 10:27:49;;;;;;;33.63;19.95;;;;;;;26.98;54.71;101298.31;4990384;28;20032;-67
2023/06/29 10:30:23;;;;;;;31.75;20.52;;;;;;;26.89;54.78;101303.22;4991663;28;20482;-68
2023/06/29 10:32:50;;;;;;;33.92;20.40;;;;;;;26.86;52.68;101300.88;4990572;28;20390;-67
2023/06/29 10:35:16;;;;;;;31.45;20.60;;;;;;;26.78;52.63;101291.78;4990626;28;20042;-66
2023/06/29 10:37:46;;;;;;;34.58;20.50;;;;;;;26.62;53.13;101301.34;4990945;28;20046;-67
2023/06/29 10:40:17;;;;;;;35.40;21.42;;;;;;;26.45;51.39;101303.63;4990315;28;20502;-67
2023/06/29 10:42:43;;;;;;;36.35;21.00;;;;;;;26.23;52.36;101301.91;4990675;28;20034;-66
2023/06/29 10:45:21;;;;;;;34.13;20.63;;;;;;;26.03;53.92;101301.78;4990548;28;20022;-66
2023/06/29 10:47:55;;;;;;;38.65;21.98;;;;;;;26.02;54.30;101297.22;4990227;28;20486;-67
2023/06/29 10:50:31;;;;;;;29.98;19.80;;;;;;;26.04;54.33;101293.19;4988265;28;20038;-66
2023/06/29 10:53:00;;;;;;;33.53;20.75;;;;;;;26.03;54.40;101291.47;4988354;28;20137;-67
2023/06/29 10:55:28;;;;;;;32.83;20.08;;;;;;;26.03;53.78;101282.25;4989886;28;20398;-68
2023/06/29 10:57:55;;;;;;;32.58;20.25;;;;;;;26.03;54.38;101287.81;4989846;28;20049;-67
2023/06/29 11:00:22;;;;;;;32.63;20.02;;;;;;;26.10;54.45;101288.72;4990073;28;20442;-67
2023/06/29 11:02:48;;;;;;;33.38;21.10;;;;;;;26.16;53.36;101288.78;4990215;28;20049;-67
2023/06/29 11:05:18;;;;;;;35.05;21.38;;;;;;;26.19;54.84;101293.09;4990037;28;20478;-66